Time;durP1;ratioP1;P1;durP2;ratioP2;P2;SDS_P1;SDS_P2;PMS_P1;PMS_P2;Temp;Humidity;BMP_temperature;BMP_pressure;BME280_temperature;BME280_humidity;BME280_pressure;Samples;Min_cycle;Max_cycle;Signal;HPM_P1;HPM_P2
2021/12/21 00:01:31;;;;;;;14.30;10.47;;;0.50;99.90;;;;;;5056584;28;20234;-76
2021/12/21 00:03:57;;;;;;;17.70;10.43;;;0.50;99.90;;;;;;5064028;28;20192;-76
2021/12/21 00:06:23;;;;;;;11.10;9.90;;;0.50;99.90;;;;;;5047347;28;20645;-76
2021/12/21 00:08:49;;;;;;;13.57;10.00;;;0.50;99.90;;;;;;5062561;28;20639;-76
2021/12/21 00:11:17;;;;;;;15.53;11.70;;;0.50;99.90;;;;;;5065316;28;20627;-76
2021/12/21 00:13:59;;;;;;;13.20;10.13;;;0.40;99.90;;;;;;5064042;28;20270;-76
2021/12/21 00:17:00;;;;;;;11.63;9.87;;;0.40;99.90;;;;;;5054820;28;21153;-76
2021/12/21 00:19:44;;;;;;;11.37;9.57;;;0.40;99.90;;;;;;5065183;28;20621;-77
2021/12/21 00:22:39;;;;;;;11.90;10.23;;;0.40;99.90;;;;;;5050285;28;20590;-76
2021/12/21 00:24:55;;;;;;;12.20;9.60;;;0.40;99.90;;;;;;5068537;28;20708;-76
2021/12/21 00:27:21;;;;;;;14.73;10.90;;;0.40;99.90;;;;;;5068026;28;21200;-76
2021/12/21 00:29:47;;;;;;;11.13;9.83;;;0.40;99.90;;;;;;5047901;28;20224;-76
2021/12/21 00:32:16;;;;;;;14.63;9.83;;;0.40;99.90;;;;;;5070269;28;20632;-76
2021/12/21 00:34:44;;;;;;;11.27;9.50;;;0.40;99.90;;;;;;5050801;28;20556;-76
2021/12/21 00:37:10;;;;;;;13.93;10.70;;;0.30;99.90;;;;;;5053389;28;20646;-76
2021/12/21 00:39:36;;;;;;;14.27;10.77;;;0.30;99.90;;;;;;5051907;28;20633;-76
2021/12/21 00:42:01;;;;;;;13.10;10.40;;;0.30;99.90;;;;;;5072208;28;20192;-77
2021/12/21 00:44:28;;;;;;;12.90;9.97;;;0.30;99.90;;;;;;5056392;28;20207;-77
2021/12/21 00:46:56;;;;;;;11.27;9.77;;;0.30;99.90;;;;;;5072812;28;20225;-76
2021/12/21 00:49:23;;;;;;;12.33;9.53;;;0.30;99.90;;;;;;5072364;28;20609;-76
2021/12/21 00:51:49;;;;;;;14.30;10.33;;;0.30;99.90;;;;;;5072077;28;20606;-76
2021/12/21 00:54:18;;;;;;;13.57;10.30;;;0.30;99.90;;;;;;5057471;28;20613;-76
2021/12/21 00:56:47;;;;;;;13.10;10.53;;;0.20;99.90;;;;;;5055331;28;20192;-76
2021/12/21 00:59:13;;;;;;;12.63;10.23;;;0.20;99.90;;;;;;5072913;28;20664;-76
2021/12/21 01:01:42;;;;;;;14.67;10.90;;;0.20;99.90;;;;;;5052630;28;20656;-76
2021/12/21 01:04:16;;;;;;;11.40;10.30;;;0.20;99.90;;;;;;5064641;28;20190;-75
2021/12/21 01:06:56;;;;;;;12.90;9.67;;;0.20;99.90;;;;;;5065299;28;21021;-76
2021/12/21 01:11:58;;;;;;;13.77;9.57;;;0.20;99.90;;;;;;5059883;28;21290;-76
2021/12/21 01:17:23;;;;;;;12.90;10.37;;;0.20;99.90;;;;;;5057602;28;20634;-76
2021/12/21 01:20:03;;;;;;;13.73;10.60;;;0.10;99.90;;;;;;5059800;28;20638;-76
2021/12/21 01:25:25;;;;;;;15.03;10.87;;;0.30;99.90;;;;;;5061115;28;20880;-75
2021/12/21 01:33:06;;;;;;;12.73;10.30;;;0.10;99.90;;;;;;5063075;28;20625;-75
2021/12/21 01:35:39;;;;;;;12.27;10.00;;;0.10;99.90;;;;;;5059731;28;20590;-75
2021/12/21 01:38:21;;;;;;;13.53;9.83;;;0.10;99.90;;;;;;5059446;28;20694;-75
2021/12/21 01:41:07;;;;;;;16.10;10.90;;;0.00;99.90;;;;;;5059330;28;20640;-76
2021/12/21 01:43:40;;;;;;;13.40;11.07;;;0.00;99.90;;;;;;5060583;28;20609;-75
2021/12/21 01:51:35;;;;;;;10.97;9.83;;;0.00;99.90;;;;;;5065497;28;20656;-76
2021/12/21 01:54:01;;;;;;;11.67;10.20;;;0.00;99.90;;;;;;5051794;28;20606;-76
2021/12/21 01:56:29;;;;;;;12.87;10.07;;;0.00;99.90;;;;;;5069940;28;21198;-77
2021/12/21 01:58:58;;;;;;;11.80;10.40;;;0.00;99.90;;;;;;5067027;28;21215;-76
2021/12/21 02:01:27;;;;;;;12.90;10.60;;;0.00;99.90;;;;;;5068431;28;20656;-76
2021/12/21 02:03:54;;;;;;;11.20;10.03;;;0.00;99.90;;;;;;5068809;28;20757;-76
2021/12/21 02:06:26;;;;;;;12.90;10.40;;;-0.10;99.90;;;;;;5064510;28;20637;-76
2021/12/21 02:08:52;;;;;;;15.20;10.63;;;0.00;99.90;;;;;;5067500;28;20645;-76
2021/12/21 02:11:22;;;;;;;12.33;10.17;;;-0.10;99.90;;;;;;5061142;28;20630;-76
2021/12/21 02:13:51;;;;;;;13.10;10.57;;;-0.10;99.90;;;;;;5069131;28;20623;-76
2021/12/21 02:16:29;;;;;;;13.07;9.93;;;-0.10;99.90;;;;;;5056667;28;20626;-76
2021/12/21 02:19:15;;;;;;;13.87;11.10;;;-0.10;99.90;;;;;;5070440;28;21233;-76
2021/12/21 02:21:47;;;;;;;12.47;9.80;;;-0.10;99.90;;;;;;5053136;28;21028;-76
2021/12/21 02:24:17;;;;;;;13.23;11.37;;;-0.10;99.90;;;;;;5069196;28;20719;-76
2021/12/21 02:26:51;;;;;;;13.13;11.10;;;-0.10;99.90;;;;;;5054776;28;21278;-77
2021/12/21 02:29:25;;;;;;;12.80;10.50;;;-0.10;99.90;;;;;;5069231;28;20606;-77
2021/12/21 02:31:52;;;;;;;14.43;10.80;;;-0.10;99.90;;;;;;5068899;28;20672;-76
2021/12/21 02:34:19;;;;;;;12.67;10.30;;;-0.10;99.90;;;;;;5068931;28;20729;-76
2021/12/21 02:36:47;;;;;;;12.60;10.87;;;-0.10;99.90;;;;;;5070954;28;20681;-77
2021/12/21 02:39:14;;;;;;;12.53;10.47;;;-0.10;99.90;;;;;;5054742;28;20733;-76
2021/12/21 02:41:41;;;;;;;12.53;10.70;;;-0.10;99.90;;;;;;5069474;28;20634;-77
2021/12/21 02:44:07;;;;;;;12.47;10.13;;;-0.10;99.90;;;;;;5071636;28;20621;-77
2021/12/21 02:46:33;;;;;;;14.57;11.40;;;-0.10;99.90;;;;;;5070120;28;20638;-77
2021/12/21 02:48:59;;;;;;;13.30;10.60;;;-0.10;99.90;;;;;;5070459;28;20633;-76
2021/12/21 02:51:27;;;;;;;15.17;10.63;;;-0.20;99.90;;;;;;5072312;28;20655;-76
2021/12/21 02:53:55;;;;;;;14.20;10.80;;;-0.20;99.90;;;;;;5073698;28;20184;-76
2021/12/21 02:56:21;;;;;;;15.00;10.60;;;-0.20;99.90;;;;;;5067217;28;20602;-76
2021/12/21 02:58:49;;;;;;;12.73;10.70;;;-0.20;99.90;;;;;;5067087;28;21313;-76
2021/12/21 03:01:15;;;;;;;13.77;11.80;;;-0.20;99.90;;;;;;5064312;28;20223;-76
2021/12/21 03:03:44;;;;;;;17.30;11.33;;;-0.20;99.90;;;;;;5061542;28;22344;-76
2021/12/21 03:06:31;;;;;;;12.27;10.50;;;-0.20;99.90;;;;;;5043526;28;20623;-76
2021/12/21 03:08:58;;;;;;;12.57;9.73;;;-0.20;99.90;;;;;;5059100;28;20674;-75
2021/12/21 03:14:11;;;;;;;11.13;9.90;;;-0.20;99.90;;;;;;5058091;28;20592;-76
2021/12/21 03:16:40;;;;;;;13.00;10.80;;;-0.20;99.90;;;;;;5061553;28;20610;-76
2021/12/21 03:19:08;;;;;;;12.77;10.07;;;-0.20;99.90;;;;;;5058100;28;20614;-76
2021/12/21 03:21:38;;;;;;;13.20;9.23;;;-0.20;99.90;;;;;;5039725;28;20645;-76
2021/12/21 03:24:05;;;;;;;14.33;10.30;;;-0.20;99.90;;;;;;5056998;28;20616;-76
2021/12/21 03:26:31;;;;;;;10.70;9.50;;;-0.20;99.90;;;;;;5042079;28;20637;-77
2021/12/21 03:28:57;;;;;;;12.53;10.60;;;-0.20;99.90;;;;;;5057642;28;20642;-76
2021/12/21 03:31:23;;;;;;;11.87;9.60;;;-0.20;99.90;;;;;;5040552;28;20687;-76
2021/12/21 03:33:49;;;;;;;11.07;9.93;;;-0.30;99.90;;;;;;5045809;28;20606;-77
2021/12/21 03:36:19;;;;;;;14.93;11.17;;;-0.30;99.90;;;;;;5049399;28;20187;-77
2021/12/21 03:38:52;;;;;;;16.33;10.93;;;-0.30;99.90;;;;;;5047890;28;20629;-77
2021/12/21 03:41:21;;;;;;;13.63;9.83;;;-0.30;99.90;;;;;;5066224;28;20621;-77
2021/12/21 03:43:47;;;;;;;12.33;11.00;;;-0.30;99.90;;;;;;5048316;28;21127;-77
2021/12/21 03:46:15;;;;;;;11.93;10.30;;;-0.30;99.90;;;;;;5064179;28;20627;-76
2021/12/21 03:48:45;;;;;;;12.53;9.40;;;-0.30;99.90;;;;;;5042172;28;20638;-76
2021/12/21 03:51:16;;;;;;;11.63;10.17;;;-0.30;99.90;;;;;;5063408;28;20617;-77
2021/12/21 03:53:42;;;;;;;11.97;9.80;;;-0.40;99.90;;;;;;5065001;28;20597;-77
2021/12/21 03:58:34;;;;;;;11.30;10.07;;;-0.40;99.90;;;;;;5065322;28;20632;-76
2021/12/21 04:00:59;;;;;;;12.13;10.93;;;-0.40;99.90;;;;;;5062378;28;20386;-76
2021/12/21 04:03:25;;;;;;;11.33;10.13;;;-0.40;99.90;;;;;;5066783;28;20350;-76
2021/12/21 04:05:51;;;;;;;11.50;10.23;;;-0.40;99.90;;;;;;5064514;28;20202;-77
2021/12/21 04:08:16;;;;;;;13.50;10.70;;;-0.40;99.90;;;;;;5045722;28;20227;-77
2021/12/21 04:10:42;;;;;;;14.13;11.30;;;-0.40;99.90;;;;;;5061728;28;20223;-76
2021/12/21 04:13:10;;;;;;;15.10;11.70;;;-0.40;99.90;;;;;;5048539;28;20184;-76
2021/12/21 04:15:42;;;;;;;17.87;11.33;;;-0.40;99.90;;;;;;5046981;28;20176;-77
2021/12/21 04:18:13;;;;;;;13.00;11.43;;;-0.40;99.90;;;;;;5065191;28;20626;-77
2021/12/21 04:20:40;;;;;;;15.13;10.73;;;-0.40;99.90;;;;;;5062678;28;20657;-77
2021/12/21 04:23:06;;;;;;;12.47;10.73;;;-0.50;99.90;;;;;;5062883;28;20705;-77
2021/12/21 04:25:35;;;;;;;13.13;10.53;;;-0.50;99.90;;;;;;5062730;28;20617;-76
2021/12/21 04:28:01;;;;;;;11.90;10.60;;;-0.50;99.90;;;;;;5063579;28;20731;-76
2021/12/21 04:30:28;;;;;;;12.13;9.70;;;-0.50;99.90;;;;;;5064304;28;20997;-77
2021/12/21 04:32:56;;;;;;;11.83;10.20;;;-0.50;99.90;;;;;;5056841;28;20611;-76
2021/12/21 04:35:22;;;;;;;12.47;10.50;;;-0.50;99.90;;;;;;5065015;28;20651;-76
2021/12/21 04:37:57;;;;;;;13.50;10.20;;;-0.50;99.90;;;;;;5066540;28;20649;-76
2021/12/21 04:40:40;;;;;;;16.70;10.63;;;-0.50;99.90;;;;;;5065763;28;20687;-76
2021/12/21 04:43:06;;;;;;;12.67;10.30;;;-0.50;99.90;;;;;;5047573;28;20969;-76
2021/12/21 04:45:32;;;;;;;13.03;10.57;;;-0.50;99.90;;;;;;5049767;28;20616;-76
2021/12/21 04:47:57;;;;;;;12.87;10.80;;;-0.50;99.90;;;;;;5066086;28;20714;-76
2021/12/21 04:50:23;;;;;;;11.07;10.00;;;-0.50;99.90;;;;;;5063925;28;20729;-77
2021/12/21 04:52:51;;;;;;;14.40;10.50;;;-0.50;99.90;;;;;;5064212;28;20214;-76
2021/12/21 04:55:17;;;;;;;13.93;10.17;;;-0.60;99.90;;;;;;5063526;28;20194;-76
2021/12/21 04:57:43;;;;;;;12.67;10.27;;;-0.60;99.90;;;;;;5062281;28;20725;-76
2021/12/21 05:00:11;;;;;;;12.90;10.30;;;-0.60;99.90;;;;;;5063207;28;20280;-77
2021/12/21 05:02:39;;;;;;;13.27;10.10;;;-0.60;99.90;;;;;;5044620;28;21236;-75
2021/12/21 05:05:05;;;;;;;12.50;10.57;;;-0.60;99.90;;;;;;5060502;28;20699;-76
2021/12/21 05:07:34;;;;;;;12.70;10.30;;;-0.60;99.90;;;;;;5055833;28;20665;-76
2021/12/21 05:10:02;;;;;;;12.33;10.43;;;-0.60;99.90;;;;;;5031017;28;20729;-77
2021/12/21 05:12:30;;;;;;;11.30;9.20;;;-0.60;99.90;;;;;;5042550;28;20588;-76
2021/12/21 05:14:56;;;;;;;12.90;10.20;;;-0.60;99.90;;;;;;5054160;28;20617;-77
2021/12/21 05:17:25;;;;;;;12.67;10.23;;;-0.60;99.90;;;;;;5061165;28;20641;-77
2021/12/21 05:19:50;;;;;;;11.90;10.10;;;-0.60;99.90;;;;;;5066869;28;20668;-77
2021/12/21 05:22:23;;;;;;;13.57;11.13;;;-0.60;99.90;;;;;;5051661;28;20657;-77
2021/12/21 05:24:51;;;;;;;12.73;10.93;;;-0.60;99.90;;;;;;5067627;28;20786;-76
2021/12/21 05:27:19;;;;;;;18.73;10.73;;;-0.60;99.90;;;;;;5068564;28;20876;-76
2021/12/21 05:29:45;;;;;;;13.50;10.07;;;-0.60;99.90;;;;;;5067331;28;21197;-76
2021/12/21 05:32:10;;;;;;;12.30;10.40;;;-0.70;99.90;;;;;;5070875;28;20692;-76
2021/12/21 05:34:36;;;;;;;11.80;10.20;;;-0.70;99.90;;;;;;5054245;28;20187;-77
2021/12/21 05:37:06;;;;;;;12.00;10.47;;;-0.70;99.90;;;;;;5047909;28;20213;-76
2021/12/21 05:39:41;;;;;;;12.90;10.30;;;-0.70;99.90;;;;;;5061803;28;20199;-76
2021/12/21 05:42:07;;;;;;;11.67;10.47;;;-0.70;99.90;;;;;;5042795;28;20616;-76
2021/12/21 05:44:33;;;;;;;15.03;10.60;;;-0.70;99.90;;;;;;5062024;28;20992;-76
2021/12/21 05:46:58;;;;;;;11.63;9.50;;;-0.70;99.90;;;;;;5044109;28;20669;-76
2021/12/21 05:49:24;;;;;;;11.80;10.60;;;-0.70;99.90;;;;;;5059364;28;20191;-76
2021/12/21 05:51:54;;;;;;;14.50;10.63;;;-0.70;99.90;;;;;;5061751;28;20601;-76
2021/12/21 05:54:21;;;;;;;14.70;10.60;;;-0.70;99.90;;;;;;5062922;28;20302;-76
2021/12/21 05:56:47;;;;;;;15.00;11.40;;;-0.70;99.90;;;;;;5050415;28;20617;-76
2021/12/21 05:59:13;;;;;;;13.83;10.47;;;-0.70;99.90;;;;;;5061347;28;20629;-77
2021/12/21 06:01:40;;;;;;;10.50;9.00;;;-0.70;99.90;;;;;;5046923;28;20698;-77
2021/12/21 06:04:09;;;;;;;12.20;10.73;;;-0.70;99.90;;;;;;5059020;28;20191;-76
2021/12/21 06:06:42;;;;;;;10.80;9.70;;;-0.70;99.90;;;;;;5045334;28;21007;-76
2021/12/21 06:09:10;;;;;;;11.47;10.27;;;-0.70;99.90;;;;;;5048743;28;20636;-76
2021/12/21 06:11:42;;;;;;;12.23;10.53;;;-0.70;99.90;;;;;;5065750;28;20728;-76
2021/12/21 06:14:38;;;;;;;14.77;10.93;;;-0.80;99.90;;;;;;5041384;28;21247;-77
2021/12/21 06:27:53;;;;;;;11.33;9.40;;;-0.80;99.90;;;;;;5065433;28;20667;-77
2021/12/21 06:30:19;;;;;;;11.80;10.50;;;-0.90;99.90;;;;;;5045755;28;20622;-76
2021/12/21 06:32:45;;;;;;;12.03;10.13;;;-0.90;99.90;;;;;;5043887;28;20188;-76
2021/12/21 06:35:12;;;;;;;13.77;10.17;;;-0.90;99.90;;;;;;5040407;28;20707;-76
2021/12/21 06:37:38;;;;;;;11.90;10.37;;;-0.90;99.90;;;;;;5052022;28;20665;-76
2021/12/21 06:40:07;;;;;;;12.50;11.20;;;-0.90;99.90;;;;;;5062182;28;20644;-76
2021/12/21 06:42:34;;;;;;;12.50;9.90;;;-0.90;99.90;;;;;;5055408;28;20183;-76
2021/12/21 06:45:01;;;;;;;12.00;10.53;;;-0.90;99.90;;;;;;5064641;28;20605;-76
2021/12/21 06:52:56;;;;;;;14.77;11.17;;;-0.90;99.90;;;;;;5068104;28;21168;-76
2021/12/21 06:55:21;;;;;;;12.30;11.00;;;-0.90;99.90;;;;;;5047614;28;20651;-76
2021/12/21 06:57:47;;;;;;;12.73;10.30;;;-0.90;99.90;;;;;;5057835;28;20219;-76
2021/12/21 07:00:15;;;;;;;11.93;10.80;;;-1.00;99.90;;;;;;5049067;28;20223;-76
2021/12/21 07:02:41;;;;;;;14.60;10.63;;;-1.00;99.90;;;;;;5058941;28;20283;-76
2021/12/21 07:05:08;;;;;;;12.53;11.23;;;-0.90;99.90;;;;;;5033469;28;20621;-76
2021/12/21 07:07:33;;;;;;;12.27;10.47;;;-1.00;99.90;;;;;;5037184;28;20730;-76
2021/12/21 07:10:05;;;;;;;12.37;11.00;;;-1.00;99.90;;;;;;5064107;28;21201;-76
2021/12/21 07:20:28;;;;;;;15.07;11.00;;;-1.00;99.90;;;;;;5064206;28;20678;-76
2021/12/21 07:22:53;;;;;;;11.97;10.77;;;-0.80;99.90;;;;;;5045046;28;20619;-76
2021/12/21 07:25:19;;;;;;;12.40;10.70;;;-0.90;99.90;;;;;;5059919;28;20275;-77
2021/12/21 07:27:45;;;;;;;11.50;10.17;;;-0.90;99.90;;;;;;5046840;28;20227;-76
2021/12/21 07:30:13;;;;;;;12.63;10.83;;;-0.90;99.90;;;;;;5061374;28;20991;-76
2021/12/21 07:32:39;;;;;;;13.53;11.07;;;-1.00;99.90;;;;;;5061842;28;20462;-76
2021/12/21 07:35:05;;;;;;;12.47;11.17;;;-1.00;99.90;;;;;;5063936;28;21221;-76
2021/12/21 07:37:31;;;;;;;15.70;11.47;;;-1.00;99.90;;;;;;5041379;28;20276;-76
2021/12/21 07:39:57;;;;;;;14.57;11.10;;;-1.00;99.90;;;;;;5039927;28;20637;-76
2021/12/21 07:42:23;;;;;;;17.20;11.50;;;-0.90;99.90;;;;;;5062149;28;20633;-76
2021/12/21 07:44:49;;;;;;;14.60;10.93;;;-1.00;99.90;;;;;;5045505;28;20600;-76
2021/12/21 07:47:17;;;;;;;15.10;12.10;;;-1.00;99.90;;;;;;5047044;28;20674;-76
2021/12/21 07:49:43;;;;;;;12.53;10.97;;;-1.00;99.90;;;;;;5059635;28;20680;-76
2021/12/21 07:52:09;;;;;;;13.83;11.43;;;-1.00;99.90;;;;;;5064415;28;20626;-76
2021/12/21 07:54:37;;;;;;;16.53;11.10;;;-1.00;99.90;;;;;;5066774;28;20192;-76
2021/12/21 07:57:06;;;;;;;15.37;12.07;;;-1.00;99.90;;;;;;5063285;28;20645;-76
2021/12/21 07:59:32;;;;;;;13.23;11.83;;;-1.00;99.90;;;;;;5056794;28;20610;-76
2021/12/21 08:01:58;;;;;;;15.87;12.07;;;-1.00;99.90;;;;;;5045040;28;20632;-76
2021/12/21 08:04:27;;;;;;;15.00;11.30;;;-0.90;99.90;;;;;;5045040;28;20617;-76
2021/12/21 08:06:56;;;;;;;19.57;10.80;;;-0.90;99.90;;;;;;5048714;28;21031;-76
2021/12/21 08:09:21;;;;;;;14.67;11.07;;;-0.90;99.90;;;;;;5061009;28;21455;-76
2021/12/21 08:14:32;;;;;;;15.57;12.40;;;-0.90;99.90;;;;;;5064108;28;20186;-76
2021/12/21 08:17:00;;;;;;;14.30;11.73;;;-0.90;99.90;;;;;;5065088;28;20696;-76
2021/12/21 08:19:26;;;;;;;12.57;11.17;;;-0.80;99.90;;;;;;5041906;28;20637;-76
2021/12/21 08:21:51;;;;;;;14.80;12.60;;;-0.80;99.90;;;;;;5047815;28;20642;-76
2021/12/21 08:24:17;;;;;;;14.80;12.10;;;-0.80;99.90;;;;;;5066107;28;20241;-76
2021/12/21 08:26:42;;;;;;;14.33;11.70;;;-0.80;99.90;;;;;;5062650;28;20265;-76
2021/12/21 08:29:08;;;;;;;13.80;11.80;;;-0.80;99.90;;;;;;5067270;28;20587;-76
2021/12/21 08:31:34;;;;;;;13.83;11.70;;;-0.80;99.90;;;;;;5044682;28;20276;-76
2021/12/21 08:33:59;;;;;;;14.00;11.93;;;-0.80;99.90;;;;;;5047534;28;20238;-76
2021/12/21 08:36:25;;;;;;;16.03;12.80;;;-0.70;99.90;;;;;;5061944;28;20183;-76
2021/12/21 08:38:51;;;;;;;12.90;11.50;;;-0.70;99.90;;;;;;5065133;28;20276;-76
2021/12/21 08:41:16;;;;;;;15.57;11.70;;;-0.70;99.90;;;;;;5065235;28;20662;-76
2021/12/21 08:43:42;;;;;;;13.63;11.13;;;-0.70;99.90;;;;;;5042719;28;20505;-76
2021/12/21 08:46:08;;;;;;;15.97;13.00;;;-0.70;99.90;;;;;;5061340;28;20187;-76
2021/12/21 08:48:35;;;;;;;15.13;11.50;;;-0.70;99.90;;;;;;5047450;28;20223;-76
2021/12/21 08:51:01;;;;;;;15.10;11.80;;;-0.70;99.90;;;;;;5064701;28;20629;-76
2021/12/21 08:53:26;;;;;;;15.67;12.63;;;-0.70;99.90;;;;;;5069425;28;21035;-76
2021/12/21 08:55:54;;;;;;;13.40;11.63;;;-0.70;99.90;;;;;;5047277;28;20976;-76
2021/12/21 08:58:23;;;;;;;12.87;10.87;;;-0.60;99.90;;;;;;5050838;28;20586;-76
2021/12/21 09:00:50;;;;;;;13.37;11.37;;;-0.50;99.90;;;;;;5065639;28;20645;-76
2021/12/21 09:03:16;;;;;;;14.50;12.27;;;-0.50;99.90;;;;;;5066095;28;21156;-76
2021/12/21 09:05:42;;;;;;;13.27;11.70;;;-0.40;99.90;;;;;;5052340;28;20612;-76
2021/12/21 09:08:10;;;;;;;15.50;12.43;;;-0.40;99.90;;;;;;5052650;28;20665;-76
2021/12/21 09:10:40;;;;;;;15.93;13.10;;;-0.30;99.90;;;;;;5064719;28;20215;-75
2021/12/21 09:13:06;;;;;;;12.97;11.67;;;-0.20;99.90;;;;;;5050651;28;20986;-76
2021/12/21 09:15:34;;;;;;;14.10;12.50;;;-0.10;99.90;;;;;;5066279;28;20613;-75
2021/12/21 09:18:00;;;;;;;14.67;13.13;;;-0.10;99.90;;;;;;5064693;28;20680;-76
2021/12/21 09:20:27;;;;;;;15.70;12.90;;;0.00;99.90;;;;;;5069163;28;20687;-76
2021/12/21 09:22:53;;;;;;;16.60;13.07;;;0.00;99.90;;;;;;5071816;28;20267;-76
2021/12/21 09:25:19;;;;;;;15.33;12.27;;;0.10;99.90;;;;;;5046904;28;20704;-76
2021/12/21 09:27:46;;;;;;;14.50;13.00;;;0.10;99.90;;;;;;5048408;28;20667;-76
2021/12/21 09:30:14;;;;;;;19.07;13.03;;;0.20;99.90;;;;;;5063764;28;21284;-76
2021/12/21 09:32:41;;;;;;;15.20;13.60;;;0.30;99.90;;;;;;5056582;28;20606;-76
2021/12/21 09:35:07;;;;;;;15.70;13.93;;;0.30;99.90;;;;;;5049296;28;20605;-75
2021/12/21 09:37:37;;;;;;;17.60;13.17;;;0.40;99.90;;;;;;5063047;28;20644;-76
2021/12/21 09:40:06;;;;;;;16.40;12.30;;;0.40;99.90;;;;;;5049840;28;21236;-76
2021/12/21 09:42:35;;;;;;;16.90;13.57;;;0.50;99.90;;;;;;5049521;28;21166;-76
2021/12/21 09:45:03;;;;;;;14.60;13.13;;;0.50;99.90;;;;;;5064767;28;20609;-75
2021/12/21 09:47:28;;;;;;;16.07;13.30;;;0.60;99.90;;;;;;5048318;28;20665;-76
2021/12/21 09:49:55;;;;;;;15.17;13.67;;;0.60;99.90;;;;;;5049833;28;20621;-76
2021/12/21 09:52:24;;;;;;;15.03;13.03;;;0.70;99.90;;;;;;5052163;28;20184;-76
2021/12/21 09:54:51;;;;;;;15.97;14.17;;;0.70;99.90;;;;;;5067672;28;20590;-76
2021/12/21 09:57:18;;;;;;;18.30;14.00;;;0.80;99.90;;;;;;5048091;28;20641;-75
2021/12/21 09:59:45;;;;;;;17.50;13.30;;;0.90;99.90;;;;;;5067810;28;20621;-77
2021/12/21 10:02:11;;;;;;;16.60;14.57;;;0.90;99.90;;;;;;5066095;28;20610;-76
2021/12/21 10:04:57;;;;;;;15.67;13.97;;;0.90;99.90;;;;;;5049468;28;21035;-76
2021/12/21 10:07:24;;;;;;;17.77;14.70;;;1.00;99.90;;;;;;5051734;28;20661;-76
2021/12/21 10:10:00;;;;;;;14.50;13.00;;;1.00;99.90;;;;;;5058856;28;20630;-76
2021/12/21 10:12:34;;;;;;;16.10;13.47;;;1.10;99.90;;;;;;5059321;28;20661;-76
2021/12/21 10:15:07;;;;;;;16.30;13.90;;;1.20;99.90;;;;;;5067306;28;21095;-75
2021/12/21 10:17:36;;;;;;;17.03;14.17;;;1.20;99.90;;;;;;5067254;28;20641;-76
2021/12/21 10:20:07;;;;;;;14.83;13.20;;;1.20;99.90;;;;;;5044162;28;20638;-76
2021/12/21 10:22:34;;;;;;;16.70;14.50;;;1.30;99.90;;;;;;5052085;28;20605;-76
2021/12/21 10:24:59;;;;;;;17.13;15.03;;;1.30;99.90;;;;;;5067382;28;20675;-75
2021/12/21 10:27:31;;;;;;;18.43;15.53;;;1.30;99.90;;;;;;5051121;28;20657;-76
2021/12/21 10:29:59;;;;;;;21.13;15.20;;;1.40;99.90;;;;;;5067926;28;20215;-75
2021/12/21 10:32:31;;;;;;;18.30;15.10;;;1.10;99.90;;;;;;5042500;28;20601;-75
2021/12/21 10:35:01;;;;;;;18.83;15.33;;;1.40;99.90;;;;;;5065222;28;20695;-76
2021/12/21 10:37:30;;;;;;;18.33;15.47;;;1.50;99.90;;;;;;5062832;28;20636;-76
2021/12/21 10:40:24;;;;;;;16.80;14.83;;;1.50;99.90;;;;;;5045739;28;20688;-76
2021/12/21 10:43:05;;;;;;;16.13;14.40;;;1.50;99.90;;;;;;5064536;28;21035;-76
2021/12/21 10:45:41;;;;;;;17.83;15.10;;;1.50;99.90;;;;;;5063326;28;20609;-75
2021/12/21 10:48:16;;;;;;;20.87;15.30;;;1.50;99.90;;;;;;5044663;28;20664;-76
2021/12/21 10:50:49;;;;;;;16.80;14.47;;;1.60;99.90;;;;;;5062180;28;20633;-76
2021/12/21 10:53:26;;;;;;;15.83;14.10;;;1.60;99.90;;;;;;5065589;28;21140;-76
2021/12/21 10:56:04;;;;;;;18.10;14.60;;;1.60;99.90;;;;;;5068724;28;21039;-76
2021/12/21 10:58:31;;;;;;;18.33;14.97;;;1.70;99.90;;;;;;5050285;28;21271;-76
2021/12/21 11:01:01;;;;;;;15.53;13.73;;;1.70;99.90;;;;;;5064852;28;20669;-76
2021/12/21 11:04:02;;;;;;;17.10;13.80;;;1.80;99.90;;;;;;5065693;28;21121;-76
2021/12/21 11:06:35;;;;;;;18.70;13.07;;;1.90;99.90;;;;;;5062909;28;22433;-76
2021/12/21 11:09:04;;;;;;;16.93;13.17;;;1.90;99.90;;;;;;5065715;28;20621;-76
2021/12/21 11:11:33;;;;;;;15.87;12.77;;;2.00;99.90;;;;;;5040943;28;20744;-76
2021/12/21 11:14:00;;;;;;;14.27;12.77;;;2.00;99.90;;;;;;5062330;28;20650;-76
2021/12/21 11:16:34;;;;;;;15.83;13.03;;;2.00;99.90;;;;;;5068003;28;20626;-76
2021/12/21 11:19:00;;;;;;;18.43;13.17;;;2.10;99.90;;;;;;5047163;28;20732;-77
2021/12/21 11:21:34;;;;;;;16.83;12.07;;;2.10;99.90;;;;;;5066869;28;20724;-76
2021/12/21 11:24:03;;;;;;;15.40;11.87;;;2.10;99.90;;;;;;5049565;28;20993;-76
2021/12/21 11:26:30;;;;;;;19.43;12.47;;;2.20;99.90;;;;;;5070273;28;21192;-76
2021/12/21 11:28:59;;;;;;;13.93;11.20;;;2.20;99.90;;;;;;5064815;28;20647;-76
2021/12/21 11:31:28;;;;;;;14.20;12.10;;;2.20;99.90;;;;;;5059904;28;20663;-75
2021/12/21 11:33:57;;;;;;;16.40;12.53;;;2.30;99.90;;;;;;5061247;28;21204;-76
2021/12/21 11:39:08;;;;;;;17.63;12.00;;;2.40;99.90;;;;;;5061860;28;21121;-76
2021/12/21 11:41:36;;;;;;;17.63;12.17;;;2.40;99.90;;;;;;5055353;28;20738;-76
2021/12/21 11:44:23;;;;;;;15.87;11.77;;;2.40;99.90;;;;;;5042868;28;21037;-76
2021/12/21 11:46:58;;;;;;;15.43;12.37;;;2.50;99.90;;;;;;5054162;28;20613;-76
2021/12/21 11:49:34;;;;;;;16.47;13.10;;;2.60;99.90;;;;;;5047691;28;20970;-75
2021/12/21 11:52:16;;;;;;;15.03;13.10;;;2.60;99.90;;;;;;5063404;28;20616;-75
2021/12/21 11:54:48;;;;;;;16.37;12.13;;;2.60;99.90;;;;;;5061060;28;20614;-76
2021/12/21 11:57:14;;;;;;;15.43;13.30;;;2.70;99.90;;;;;;5063621;28;20653;-76
2021/12/21 11:59:40;;;;;;;14.30;12.70;;;2.70;99.90;;;;;;5060613;28;20609;-76
2021/12/21 12:02:07;;;;;;;16.37;13.10;;;2.70;99.90;;;;;;5063219;28;20969;-76
2021/12/21 12:04:33;;;;;;;18.70;12.73;;;2.70;99.90;;;;;;5065079;28;20244;-76
2021/12/21 12:07:12;;;;;;;14.97;12.33;;;2.80;99.90;;;;;;5064591;28;20827;-76
2021/12/21 12:09:37;;;;;;;14.80;12.00;;;2.80;99.90;;;;;;5065229;28;20573;-76
2021/12/21 12:12:07;;;;;;;15.13;12.63;;;2.90;99.90;;;;;;5047800;28;20616;-76
2021/12/21 12:14:35;;;;;;;15.77;11.47;;;2.90;99.90;;;;;;5063208;28;20206;-76
2021/12/21 12:17:05;;;;;;;13.97;11.50;;;3.00;99.90;;;;;;5044765;28;20633;-77
2021/12/21 12:19:33;;;;;;;13.50;11.17;;;3.00;99.90;;;;;;5046290;28;20609;-76
2021/12/21 12:22:03;;;;;;;11.37;10.27;;;3.10;99.90;;;;;;5054302;28;20619;-76
2021/12/21 12:24:43;;;;;;;11.37;10.17;;;3.10;99.90;;;;;;5032555;28;20622;-76
2021/12/21 12:27:24;;;;;;;15.10;10.57;;;3.10;99.90;;;;;;5056172;28;20668;-75
2021/12/21 12:30:07;;;;;;;10.87;9.80;;;3.20;99.90;;;;;;5046907;28;20621;-76
2021/12/21 12:32:39;;;;;;;11.50;10.30;;;3.20;99.90;;;;;;5065788;28;20633;-76
2021/12/21 12:35:24;;;;;;;13.13;9.70;;;3.20;99.90;;;;;;5047830;28;20637;-74
2021/12/21 12:38:02;;;;;;;11.03;9.10;;;3.30;99.90;;;;;;5063069;28;20702;-76
2021/12/21 12:40:52;;;;;;;14.17;10.00;;;3.30;99.90;;;;;;5062776;28;20644;-76
2021/12/21 12:43:32;;;;;;;11.90;8.27;;;3.30;99.90;;;;;;5040042;28;20620;-76
2021/12/21 12:46:08;;;;;;;11.37;7.67;;;3.30;99.90;;;;;;5065879;28;20683;-75
2021/12/21 12:48:43;;;;;;;12.17;7.37;;;3.40;99.90;;;;;;5052167;28;21290;-75
2021/12/21 12:51:22;;;;;;;8.53;7.70;;;3.40;99.90;;;;;;5045943;28;20644;-75
2021/12/21 12:53:48;;;;;;;10.90;8.37;;;3.40;99.90;;;;;;5050590;28;20632;-75
2021/12/21 12:56:16;;;;;;;9.77;8.00;;;3.50;99.90;;;;;;5067268;28;20622;-76
2021/12/21 12:58:52;;;;;;;8.83;7.70;;;3.50;99.90;;;;;;5061084;28;20645;-76
2021/12/21 13:01:22;;;;;;;8.50;7.33;;;3.60;99.90;;;;;;5057903;28;20625;-76
2021/12/21 13:03:49;;;;;;;8.80;7.73;;;3.60;99.90;;;;;;5047901;28;20629;-75
2021/12/21 13:06:20;;;;;;;10.10;8.00;;;3.60;99.90;;;;;;5048931;28;21092;-76
2021/12/21 13:08:46;;;;;;;7.90;7.10;;;3.60;99.90;;;;;;5046507;28;20653;-76
2021/12/21 13:11:17;;;;;;;9.33;7.10;;;3.60;99.90;;;;;;5065646;28;21313;-76
2021/12/21 13:13:45;;;;;;;12.60;8.80;;;3.60;99.90;;;;;;5050384;28;20766;-75
2021/12/21 13:16:16;;;;;;;9.60;7.73;;;3.60;99.90;;;;;;5066690;28;20708;-76
2021/12/21 13:18:53;;;;;;;9.90;7.30;;;3.60;99.90;;;;;;5063899;28;20740;-76
2021/12/21 13:21:29;;;;;;;10.67;7.77;;;3.60;99.90;;;;;;5050329;28;20629;-75
2021/12/21 13:24:05;;;;;;;12.13;7.87;;;3.60;99.90;;;;;;5046110;28;20620;-76
2021/12/21 13:26:57;;;;;;;9.47;7.50;;;3.70;99.90;;;;;;5063895;28;21003;-76
2021/12/21 13:29:28;;;;;;;10.00;7.10;;;3.60;99.90;;;;;;5039717;28;20698;-76
2021/12/21 13:31:56;;;;;;;9.00;7.30;;;3.60;99.90;;;;;;5052173;28;20637;-77
2021/12/21 13:34:23;;;;;;;11.77;7.17;;;3.60;99.90;;;;;;5052695;28;20632;-76
2021/12/21 13:36:55;;;;;;;8.53;6.30;;;3.60;99.90;;;;;;5066499;28;20691;-76
2021/12/21 13:39:34;;;;;;;11.23;6.60;;;3.60;99.90;;;;;;5067692;28;20626;-77